Terminal Aerodrome Forecast
Issued by NWS

Home | Current Version | Previous Version | Text Only | Print | Product List | Glossary On
Versions: 1 2 3 4 5 6 7 8 9 10 11 12 13 14 15 16 17 18 19 20 21
000
FTUS43 KICT 221740
TAFRSL
TAF
KRSL 221740Z 2218/2318 32020G30KT P6SM SCT080
     FM230100 29015KT P6SM SCT120
     FM230900 30015KT P6SM SCT025 OVC050
     FM231500 34025G35KT P6SM VCSH SCT025 OVC035=

USA.gov is the U.S. government's official web portal to all federal, state and local government web resources and services.